createdAt,value
2023-03-24T18:33:29.595Z,11.19
2023-03-24T18:34:29.505Z,11.22
2023-03-24T18:35:29.476Z,11.18
2023-03-24T18:36:29.416Z,11.16
2023-03-24T18:37:29.343Z,11.16
2023-03-24T18:38:29.293Z,11.10
2023-03-24T18:39:29.245Z,11.20
2023-03-24T18:40:29.202Z,11.18
2023-03-24T18:41:29.153Z,11.19
2023-03-24T18:42:29.102Z,11.10
2023-03-24T18:43:29.050Z,11.22
2023-03-24T18:44:29.002Z,11.13
2023-03-24T18:45:29.085Z,11.18
2023-03-24T18:46:29.164Z,11.19
2023-03-24T18:47:28.898Z,11.08
2023-03-24T18:48:28.821Z,11.18
2023-03-24T18:49:28.799Z,11.10
2023-03-24T18:50:28.729Z,11.18
2023-03-24T18:51:28.686Z,11.20
2023-03-24T18:52:28.656Z,11.08
2023-03-24T18:53:28.602Z,11.22
2023-03-24T18:54:28.550Z,11.18
2023-03-24T18:55:28.503Z,11.16
2023-03-24T18:56:28.453Z,11.15
2023-03-24T18:57:28.410Z,11.22
2023-03-24T18:58:28.372Z,11.19
2023-03-24T18:59:28.327Z,11.20
2023-03-24T19:00:28.274Z,11.23
2023-03-24T19:01:28.292Z,11.31
2023-03-24T19:02:28.366Z,11.23
2023-03-24T19:03:28.200Z,11.30
2023-03-24T19:04:28.099Z,11.27
2023-03-24T19:05:28.082Z,11.23
2023-03-24T19:06:28.010Z,11.31
2023-03-24T19:07:27.981Z,11.33
2023-03-24T19:08:27.922Z,11.38
2023-03-24T19:09:27.888Z,11.40
2023-03-24T19:10:27.840Z,11.43
2023-03-24T19:11:27.794Z,11.44
2023-03-24T19:12:27.750Z,11.41
2023-03-24T19:13:27.704Z,11.51
2023-03-24T19:14:27.659Z,11.43
2023-03-24T19:15:27.619Z,11.51
2023-03-24T19:16:27.616Z,11.51
2023-03-24T19:17:27.546Z,11.49
2023-03-24T19:18:27.496Z,11.53
2023-03-24T19:19:27.439Z,11.53
2023-03-24T19:20:27.392Z,11.59
2023-03-24T19:21:27.375Z,11.59
2023-03-24T19:22:27.330Z,11.52
2023-03-24T19:23:27.278Z,11.53
2023-03-24T19:24:27.226Z,11.52
2023-03-24T19:25:27.173Z,11.49
2023-03-24T19:26:27.129Z,11.53
2023-03-24T19:27:27.085Z,11.53
2023-03-24T19:28:27.061Z,11.55
2023-03-24T19:29:27.005Z,11.56
2023-03-24T19:30:26.953Z,11.56
2023-03-24T19:31:26.946Z,11.59
2023-03-24T19:32:26.955Z,11.60
2023-03-24T19:33:26.821Z,11.55
2023-03-24T19:34:26.789Z,11.58
2023-03-24T19:35:26.762Z,11.58
2023-03-24T19:36:26.686Z,11.56
2023-03-24T19:37:26.670Z,11.63
2023-03-24T19:38:26.601Z,11.70
2023-03-24T19:39:26.555Z,11.63
2023-03-24T19:40:26.515Z,11.60
2023-03-24T19:41:26.477Z,11.60
2023-03-24T19:42:26.433Z,11.60
2023-03-24T19:43:26.384Z,11.67
2023-03-24T19:44:26.334Z,11.63
2023-03-24T19:45:26.296Z,11.62
2023-03-24T19:46:26.263Z,11.65
2023-03-24T19:47:26.210Z,11.70
2023-03-24T19:48:26.158Z,11.65
2023-03-24T19:49:26.119Z,11.67
2023-03-24T19:50:26.071Z,11.70
2023-03-24T19:51:26.030Z,11.70
2023-03-24T19:52:25.986Z,11.74
2023-03-24T19:53:25.990Z,11.73
2023-03-24T19:54:26.321Z,11.78
2023-03-24T19:55:26.018Z,11.83
2023-03-24T19:56:25.806Z,11.70
2023-03-24T19:57:25.764Z,11.77
2023-03-24T19:58:25.761Z,11.73
2023-03-24T19:59:25.680Z,11.76
2023-03-24T20:00:25.632Z,11.78
2023-03-24T20:01:25.685Z,11.71
2023-03-24T20:02:25.628Z,11.76
2023-03-24T20:03:25.633Z,11.77
2023-03-24T20:04:25.454Z,11.76
2023-03-24T20:05:25.417Z,11.73
2023-03-24T20:06:25.369Z,11.73
2023-03-24T20:07:25.320Z,11.78
2023-03-24T20:08:25.281Z,11.78
2023-03-24T20:09:25.269Z,11.67
2023-03-24T20:10:25.196Z,11.68
2023-03-24T20:11:25.151Z,11.63
2023-03-24T20:12:25.103Z,11.68
2023-03-24T20:13:25.061Z,11.65
2023-03-24T20:14:25.015Z,11.67
2023-03-24T20:15:24.972Z,11.70
2023-03-24T20:16:24.962Z,11.68
2023-03-24T20:17:24.890Z,11.63
2023-03-24T20:18:24.836Z,11.62
2023-03-24T20:19:24.794Z,11.65
2023-03-24T20:20:24.749Z,11.60
2023-03-24T20:21:24.705Z,11.58
2023-03-24T20:22:24.678Z,11.62
2023-03-24T20:23:24.627Z,11.63
2023-03-24T20:24:24.598Z,11.58
2023-03-24T20:25:24.552Z,11.63
2023-03-24T20:26:25.701Z,11.58
2023-03-24T20:27:24.440Z,11.56
2023-03-24T20:28:24.396Z,11.52
2023-03-24T20:29:24.352Z,11.62
2023-03-24T20:30:24.306Z,11.56
2023-03-24T20:31:24.289Z,11.59
2023-03-24T20:32:24.218Z,11.59
2023-03-24T20:33:25.187Z,11.53
2023-03-24T20:34:24.133Z,11.60
2023-03-24T20:35:24.102Z,11.58
2023-03-24T20:36:24.051Z,11.56
2023-03-24T20:37:24.001Z,11.49
2023-03-24T20:38:23.963Z,11.60
2023-03-24T20:39:23.929Z,11.49
2023-03-24T20:40:23.879Z,11.58
2023-03-24T20:41:23.898Z,11.60
2023-03-24T20:42:23.781Z,11.60
2023-03-24T20:43:23.747Z,11.51
2023-03-24T20:44:23.692Z,11.60
2023-03-24T20:45:23.652Z,11.45
2023-03-24T20:46:24.659Z,11.56
2023-03-24T20:47:24.212Z,11.51
2023-03-24T20:48:23.531Z,11.56
2023-03-24T20:49:23.489Z,11.45
2023-03-24T20:50:23.514Z,11.38
2023-03-24T20:51:26.412Z,11.45
2023-03-24T20:52:23.340Z,11.41
2023-03-24T20:53:23.296Z,11.45
2023-03-24T20:54:23.462Z,11.51
2023-03-24T20:55:23.226Z,11.45
2023-03-24T20:56:23.171Z,11.49
2023-03-24T20:57:23.140Z,11.52
2023-03-24T20:58:23.068Z,11.35
2023-03-24T20:59:23.056Z,11.38
2023-03-24T21:00:22.989Z,11.44
2023-03-24T21:01:23.047Z,11.35
2023-03-24T21:02:22.967Z,11.43
2023-03-24T21:03:22.861Z,11.45
2023-03-24T21:04:23.719Z,11.44
2023-03-24T21:05:22.848Z,11.43
2023-03-24T21:07:22.673Z,11.43
2023-03-24T21:08:22.638Z,11.41
2023-03-24T21:09:22.593Z,11.44
2023-03-24T21:10:22.540Z,11.41
2023-03-24T21:11:22.700Z,11.43
2023-03-24T21:12:22.540Z,11.44
2023-03-24T21:13:22.427Z,11.40
2023-03-24T21:14:22.362Z,11.41
2023-03-24T21:15:22.391Z,11.48
2023-03-24T21:16:22.357Z,11.41
2023-03-24T21:17:22.289Z,11.45
2023-03-24T21:18:22.185Z,11.40
2023-03-24T21:19:22.157Z,11.37
2023-03-24T21:20:22.097Z,11.38
2023-03-24T21:21:22.056Z,11.40
2023-03-24T21:22:23.940Z,11.35
2023-03-24T21:23:22.068Z,11.41
2023-03-24T21:24:21.931Z,11.31
2023-03-24T21:25:21.979Z,11.35
2023-03-24T21:26:21.849Z,11.37
2023-03-24T21:27:22.338Z,11.34
2023-03-24T21:28:21.786Z,11.37
2023-03-24T21:30:21.764Z,11.43
2023-03-24T21:31:21.755Z,11.44
2023-03-24T21:32:24.190Z,11.43
2023-03-24T21:33:21.527Z,11.44
2023-03-24T21:34:21.484Z,11.41
2023-03-24T21:35:21.434Z,11.44
2023-03-24T21:36:21.459Z,11.40
2023-03-24T21:37:21.380Z,11.40
2023-03-24T21:38:21.303Z,11.40
2023-03-24T21:39:21.272Z,11.38
2023-03-24T21:40:21.218Z,11.44
2023-03-24T21:41:21.171Z,11.43
2023-03-24T21:42:21.122Z,11.37
2023-03-24T21:43:21.111Z,11.38
2023-03-24T21:44:21.058Z,11.31
2023-03-24T21:45:21.030Z,11.34
2023-03-24T21:46:20.998Z,11.33
2023-03-24T21:47:20.920Z,11.26
2023-03-24T21:48:20.900Z,11.26
2023-03-24T21:49:20.814Z,11.33
2023-03-24T21:50:20.772Z,11.27
2023-03-24T21:51:20.723Z,11.19
2023-03-24T21:52:20.730Z,11.26
2023-03-24T21:53:20.638Z,11.30
2023-03-24T21:54:20.590Z,11.22
2023-03-24T21:55:20.565Z,11.23
2023-03-24T21:56:20.516Z,11.30
2023-03-24T21:57:20.458Z,11.22
2023-03-24T21:58:20.423Z,11.23
2023-03-24T21:59:20.368Z,11.23
2023-03-24T22:00:20.322Z,11.23
2023-03-24T22:01:20.300Z,11.22
2023-03-24T22:02:21.755Z,11.19
2023-03-24T22:03:20.219Z,11.22
2023-03-24T22:04:20.169Z,11.20
2023-03-24T22:05:20.123Z,11.20
2023-03-24T22:06:20.067Z,11.22
2023-03-24T22:07:20.010Z,11.22
2023-03-24T22:08:19.981Z,11.16
2023-03-24T22:09:19.922Z,11.16
2023-03-24T22:10:19.895Z,11.16
2023-03-24T22:11:19.850Z,11.19
2023-03-24T22:12:19.808Z,11.22
2023-03-24T22:13:19.742Z,11.18
2023-03-24T22:14:19.702Z,11.15
2023-03-24T22:15:19.681Z,11.15
2023-03-24T22:16:19.608Z,11.19
2023-03-24T22:17:19.815Z,11.20
2023-03-24T22:18:19.548Z,11.22
2023-03-24T22:19:19.493Z,11.20
2023-03-24T22:20:19.430Z,11.26
2023-03-24T22:21:19.713Z,11.22
2023-03-24T22:22:19.343Z,11.23
2023-03-24T22:23:19.326Z,11.27
2023-03-24T22:24:19.262Z,11.27
2023-03-24T22:25:19.215Z,11.25
2023-03-24T22:26:19.165Z,11.31
2023-03-24T22:27:19.130Z,11.26
2023-03-24T22:28:19.076Z,11.23
2023-03-24T22:29:19.038Z,11.43
2023-03-24T22:30:18.984Z,11.34
2023-03-24T22:31:18.948Z,11.31
2023-03-24T22:32:18.959Z,11.35
2023-03-24T22:33:18.904Z,11.37
2023-03-24T22:34:18.828Z,11.34
2023-03-24T22:35:18.787Z,11.33
2023-03-24T22:36:18.744Z,11.40
2023-03-24T22:37:18.676Z,11.37
2023-03-24T22:38:18.627Z,11.37
2023-03-24T22:39:18.591Z,11.30
2023-03-24T22:40:18.538Z,11.44
2023-03-24T22:41:18.820Z,11.44
2023-03-24T22:42:18.472Z,11.48
2023-03-24T22:43:18.403Z,11.35
2023-03-24T22:44:18.364Z,11.43
2023-03-24T22:45:18.360Z,11.45
2023-03-24T22:46:18.291Z,11.43
2023-03-24T22:47:18.227Z,11.44
2023-03-24T22:48:18.183Z,11.43
2023-03-24T22:49:18.135Z,11.38
2023-03-24T22:50:18.114Z,11.43
2023-03-24T22:52:18.012Z,11.40
2023-03-24T22:53:17.975Z,11.31
2023-03-24T22:54:17.914Z,11.25
2023-03-24T22:55:17.870Z,11.27
2023-03-24T22:56:17.822Z,11.22
2023-03-24T22:57:17.787Z,11.16
2023-03-24T22:58:17.735Z,11.18
2023-03-24T22:59:17.692Z,11.04
2023-03-24T23:00:17.645Z,11.10
2023-03-24T23:01:17.616Z,11.00
2023-03-24T23:02:17.595Z,10.92
2023-03-24T23:03:17.521Z,10.87
2023-03-24T23:04:17.467Z,10.94
2023-03-24T23:05:17.510Z,10.89
2023-03-24T23:06:17.398Z,10.84
2023-03-24T23:07:17.336Z,10.77
2023-03-24T23:08:17.303Z,10.84
2023-03-24T23:09:17.572Z,10.82
2023-03-24T23:10:17.198Z,10.82
2023-03-24T23:11:17.161Z,10.76
2023-03-24T23:12:17.108Z,10.80
2023-03-24T23:13:17.264Z,10.72
2023-03-24T23:14:17.020Z,10.75
2023-03-24T23:15:16.978Z,10.80
2023-03-24T23:16:16.978Z,10.79
2023-03-24T23:17:16.886Z,10.77
